Time;durP1;ratioP1;P1;durP2;ratioP2;P2;SDS_P1;SDS_P2;PMS_P1;PMS_P2;Temp;Humidity;BMP_temperature;BMP_pressure;BME280_temperature;BME280_humidity;BME280_pressure;Samples;Min_cycle;Max_cycle;Signal;HPM_P1;HPM_P2
2022/12/20 00:00:02;;;;;;;26.67;24.02;;;;;;;;;;5099544;28;20235;-69
2022/12/20 00:02:30;;;;;;;25.77;23.33;;;;;;;;;;5099535;28;20273;-69
2022/12/20 00:04:57;;;;;;;25.58;22.98;;;;;;;;;;5099730;28;20213;-69
2022/12/20 00:07:25;;;;;;;24.70;22.20;;;;;;;;;;5092881;28;20204;-69
2022/12/20 00:09:54;;;;;;;24.65;22.25;;;;;;;;;;5078864;28;20556;-69
2022/12/20 00:12:22;;;;;;;22.83;20.55;;;;;;;;;;5078793;28;20208;-69
2022/12/20 00:14:50;;;;;;;22.17;19.90;;;;;;;;;;5078889;28;20512;-69
2022/12/20 00:17:18;;;;;;;22.13;19.77;;;;;;;;;;5079145;28;20212;-69
2022/12/20 00:19:46;;;;;;;21.55;19.35;;;;;;;;;;5079351;28;20215;-69
2022/12/20 00:22:13;;;;;;;21.02;18.92;;;;;;;;;;5079167;28;20235;-69
2022/12/20 00:24:41;;;;;;;21.35;19.17;;;;;;;;;;5079315;28;20273;-69
2022/12/20 00:27:10;;;;;;;19.52;17.52;;;;;;;;;;5078861;28;20235;-69
2022/12/20 00:29:38;;;;;;;18.42;16.63;;;;;;;;;;5077592;28;20214;-69
2022/12/20 00:32:06;;;;;;;18.83;16.98;;;;;;;;;;5078365;28;20300;-69
2022/12/20 00:34:33;;;;;;;18.10;16.40;;;;;;;;;;5078519;28;20216;-69
2022/12/20 00:37:02;;;;;;;17.73;16.02;;;;;;;;;;5078143;28;20623;-69
2022/12/20 00:39:29;;;;;;;18.08;16.27;;;;;;;;;;5078385;28;20265;-69
2022/12/20 00:41:57;;;;;;;17.05;15.45;;;;;;;;;;5078627;28;20235;-69
2022/12/20 00:44:27;;;;;;;16.58;14.88;;;;;;;;;;5078485;28;20308;-69
2022/12/20 00:46:55;;;;;;;16.50;14.80;;;;;;;;;;5078547;28;20325;-69
2022/12/20 00:49:23;;;;;;;15.10;13.70;;;;;;;;;;5078372;28;20273;-69
2022/12/20 00:51:50;;;;;;;16.27;14.60;;;;;;;;;;5078214;28;20200;-69
2022/12/20 00:54:18;;;;;;;15.95;14.35;;;;;;;;;;5078726;28;20565;-69
2022/12/20 00:56:46;;;;;;;14.70;13.20;;;;;;;;;;5077974;28;20204;-69
2022/12/20 00:59:13;;;;;;;14.65;13.25;;;;;;;;;;5078377;28;20641;-69
2022/12/20 01:01:43;;;;;;;13.93;12.50;;;;;;;;;;5078242;28;20228;-69
2022/12/20 01:04:12;;;;;;;14.10;12.80;;;;;;;;;;5077743;28;20623;-69
2022/12/20 01:06:39;;;;;;;13.68;12.38;;;;;;;;;;5078241;28;20208;-69
2022/12/20 01:09:07;;;;;;;13.88;12.48;;;;;;;;;;5078084;28;20215;-69
2022/12/20 01:11:35;;;;;;;13.30;12.00;;;;;;;;;;5077840;28;20303;-69
2022/12/20 01:14:04;;;;;;;13.10;11.88;;;;;;;;;;5077912;28;20536;-69
2022/12/20 01:16:35;;;;;;;12.52;11.32;;;;;;;;;;5080105;28;20253;-69
2022/12/20 01:19:05;;;;;;;12.32;11.13;;;;;;;;;;5097819;28;20290;-69
2022/12/20 01:21:33;;;;;;;13.35;12.05;;;;;;;;;;5097905;28;20483;-69
2022/12/20 01:24:01;;;;;;;12.70;11.40;;;;;;;;;;5098012;28;20211;-69
2022/12/20 01:26:30;;;;;;;12.00;10.77;;;;;;;;;;5097713;28;20237;-69
2022/12/20 01:28:59;;;;;;;11.80;10.60;;;;;;;;;;5097820;28;20203;-69
2022/12/20 01:31:27;;;;;;;12.02;10.93;;;;;;;;;;5098054;28;20253;-69
2022/12/20 01:33:55;;;;;;;11.02;9.93;;;;;;;;;;5097451;28;20509;-69
2022/12/20 01:36:25;;;;;;;10.82;9.82;;;;;;;;;;5097535;28;20204;-69
2022/12/20 01:38:56;;;;;;;10.93;9.90;;;;;;;;;;5097700;28;20196;-68
2022/12/20 01:41:24;;;;;;;11.13;10.05;;;;;;;;;;5096927;28;20535;-69
2022/12/20 01:43:53;;;;;;;10.30;9.32;;;;;;;;;;5097278;28;20256;-69
2022/12/20 01:46:21;;;;;;;10.57;9.57;;;;;;;;;;5097039;28;20214;-69
2022/12/20 01:48:52;;;;;;;10.52;9.52;;;;;;;;;;5097706;28;20203;-69
2022/12/20 01:51:20;;;;;;;10.18;9.25;;;;;;;;;;5096991;28;20612;-69
2022/12/20 01:53:53;;;;;;;9.95;8.73;;;;;;;;;;5097437;28;20199;-69
2022/12/20 01:56:21;;;;;;;9.80;8.80;;;;;;;;;;5096969;28;20250;-69
2022/12/20 01:58:50;;;;;;;10.07;9.18;;;;;;;;;;5097340;28;20214;-69
2022/12/20 02:01:18;;;;;;;10.30;9.32;;;;;;;;;;5097115;28;20564;-69
2022/12/20 02:03:46;;;;;;;9.50;8.60;;;;;;;;;;5095619;28;20246;-69
2022/12/20 02:06:18;;;;;;;9.27;8.38;;;;;;;;;;5097088;28;20217;-69
2022/12/20 02:08:47;;;;;;;9.27;8.38;;;;;;;;;;5097333;28;20660;-69
2022/12/20 02:11:25;;;;;;;9.38;8.48;;;;;;;;;;5097114;28;20583;-69
2022/12/20 02:14:00;;;;;;;9.32;8.43;;;;;;;;;;5097309;28;20199;-69
2022/12/20 02:16:29;;;;;;;9.05;8.15;;;;;;;;;;5097382;28;20480;-69
2022/12/20 02:19:01;;;;;;;9.38;8.48;;;;;;;;;;5097228;28;20208;-69
2022/12/20 02:21:32;;;;;;;8.85;7.95;;;;;;;;;;5097310;28;20264;-69
2022/12/20 02:24:20;;;;;;;8.73;7.85;;;;;;;;;;5096988;28;20223;-69
2022/12/20 02:27:02;;;;;;;8.93;8.02;;;;;;;;;;5097118;28;20214;-69
2022/12/20 02:29:34;;;;;;;8.55;7.75;;;;;;;;;;5097462;28;20254;-69
2022/12/20 02:32:05;;;;;;;8.55;7.75;;;;;;;;;;5096786;28;20199;-69
2022/12/20 02:34:36;;;;;;;8.70;7.88;;;;;;;;;;5096924;28;20239;-69
2022/12/20 02:37:05;;;;;;;7.95;7.25;;;;;;;;;;5097074;28;20203;-69
2022/12/20 02:39:33;;;;;;;8.65;7.85;;;;;;;;;;5096870;28;20214;-69
2022/12/20 02:42:02;;;;;;;8.60;7.78;;;;;;;;;;5096380;28;20290;-69
2022/12/20 02:47:21;;;;;;;8.35;7.55;;;;;;;;;;5096750;28;20190;-69
2022/12/20 02:49:50;;;;;;;8.40;7.55;;;;;;;;;;5096885;28;20321;-69
2022/12/20 02:52:20;;;;;;;7.97;7.18;;;;;;;;;;5099172;28;20258;-69
2022/12/20 02:54:47;;;;;;;8.20;7.45;;;;;;;;;;5100878;28;20203;-69
2022/12/20 02:57:17;;;;;;;8.15;7.35;;;;;;;;;;5100672;28;20246;-69
2022/12/20 02:59:48;;;;;;;8.02;7.25;;;;;;;;;;5100450;28;20572;-69
2022/12/20 03:02:16;;;;;;;8.18;7.38;;;;;;;;;;5100461;28;20231;-69
2022/12/20 03:04:45;;;;;;;8.55;7.75;;;;;;;;;;5096407;28;20197;-69
2022/12/20 03:07:14;;;;;;;7.53;6.82;;;;;;;;;;5080395;28;20204;-69
2022/12/20 03:09:43;;;;;;;8.18;7.38;;;;;;;;;;5080021;28;20319;-69
2022/12/20 03:12:11;;;;;;;7.63;6.93;;;;;;;;;;5079664;28;20200;-69
2022/12/20 03:14:39;;;;;;;8.05;7.35;;;;;;;;;;5078865;28;20204;-69
2022/12/20 03:17:07;;;;;;;7.63;6.93;;;;;;;;;;5079803;28;20544;-69
2022/12/20 03:19:35;;;;;;;8.02;7.22;;;;;;;;;;5079400;28;20512;-69
2022/12/20 03:22:04;;;;;;;8.02;7.28;;;;;;;;;;5079905;28;20234;-69
2022/12/20 03:24:32;;;;;;;8.38;7.57;;;;;;;;;;5079468;28;20212;-69
2022/12/20 03:27:00;;;;;;;7.43;6.72;;;;;;;;;;5079865;28;20205;-69
2022/12/20 03:29:28;;;;;;;7.95;7.22;;;;;;;;;;5079902;28;20299;-69
2022/12/20 03:31:55;;;;;;;7.45;6.78;;;;;;;;;;5080225;28;20497;-69
2022/12/20 03:34:23;;;;;;;7.55;6.85;;;;;;;;;;5079807;28;20227;-69
2022/12/20 03:36:51;;;;;;;8.20;7.40;;;;;;;;;;5079562;28;20548;-69
2022/12/20 03:39:20;;;;;;;7.15;6.45;;;;;;;;;;5079509;28;20316;-69
2022/12/20 03:41:48;;;;;;;10.40;9.07;;;;;;;;;;5079270;28;20204;-69
2022/12/20 03:44:16;;;;;;;9.98;8.98;;;;;;;;;;5079517;28;20592;-69
2022/12/20 03:46:44;;;;;;;10.55;8.85;;;;;;;;;;5079130;28;20234;-69
2022/12/20 03:49:12;;;;;;;9.10;8.20;;;;;;;;;;5078998;28;20498;-69
2022/12/20 03:51:40;;;;;;;8.98;8.07;;;;;;;;;;5078529;28;20236;-69
2022/12/20 03:54:07;;;;;;;9.50;8.25;;;;;;;;;;5078417;28;20257;-69
2022/12/20 03:56:37;;;;;;;8.52;7.68;;;;;;;;;;5078446;28;20212;-69
2022/12/20 03:59:05;;;;;;;8.85;7.95;;;;;;;;;;5077831;28;20216;-69
2022/12/20 04:01:35;;;;;;;9.27;8.38;;;;;;;;;;5078786;28;20312;-69
2022/12/20 04:04:03;;;;;;;10.15;8.05;;;;;;;;;;5078255;28;20280;-69
2022/12/20 04:06:31;;;;;;;8.38;7.45;;;;;;;;;;5078959;28;20204;-69
2022/12/20 04:08:59;;;;;;;8.77;7.60;;;;;;;;;;5079268;28;20545;-69
2022/12/20 04:11:27;;;;;;;9.27;8.32;;;;;;;;;;5078685;28;20204;-69
2022/12/20 04:13:56;;;;;;;8.00;7.28;;;;;;;;;;5078630;28;20208;-69
2022/12/20 04:16:25;;;;;;;8.40;7.60;;;;;;;;;;5078849;28;20243;-69
2022/12/20 04:18:52;;;;;;;8.32;7.45;;;;;;;;;;5078856;28;20291;-69
2022/12/20 04:21:23;;;;;;;8.32;7.53;;;;;;;;;;5078564;28;20211;-69
2022/12/20 04:23:51;;;;;;;7.82;7.03;;;;;;;;;;5078629;28;20224;-69
2022/12/20 04:26:19;;;;;;;7.85;7.05;;;;;;;;;;5078883;28;20205;-69
2022/12/20 04:28:47;;;;;;;8.55;7.75;;;;;;;;;;5078360;28;20204;-69
2022/12/20 04:31:16;;;;;;;8.18;7.38;;;;;;;;;;5078810;28;20262;-69
2022/12/20 04:33:44;;;;;;;9.05;7.15;;;;;;;;;;5077894;28;20204;-69
2022/12/20 04:36:12;;;;;;;7.80;7.00;;;;;;;;;;5078529;28;20204;-69
2022/12/20 04:38:40;;;;;;;8.00;7.20;;;;;;;;;;5078257;28;20576;-69
2022/12/20 04:41:07;;;;;;;8.23;7.30;;;;;;;;;;5078097;28;20204;-69
2022/12/20 04:43:35;;;;;;;7.80;7.07;;;;;;;;;;5077547;28;20224;-69
2022/12/20 04:46:03;;;;;;;8.13;7.32;;;;;;;;;;5077279;28;20298;-69
2022/12/20 04:48:32;;;;;;;7.13;6.43;;;;;;;;;;5078179;28;20544;-69
2022/12/20 04:51:00;;;;;;;7.70;7.00;;;;;;;;;;5077000;28;20243;-69
2022/12/20 04:56:13;;;;;;;7.68;6.97;;;;;;;;;;5075084;28;20199;-68
2022/12/20 04:58:40;;;;;;;8.10;7.22;;;;;;;;;;5082604;28;20229;-69
2022/12/20 05:01:08;;;;;;;7.20;6.50;;;;;;;;;;5088592;28;20731;-69
2022/12/20 05:03:37;;;;;;;8.07;7.28;;;;;;;;;;5090418;28;20239;-69
2022/12/20 05:06:04;;;;;;;7.82;7.03;;;;;;;;;;5077522;28;20310;-69
2022/12/20 05:08:32;;;;;;;7.53;6.78;;;;;;;;;;5080043;28;20275;-69
2022/12/20 05:10:59;;;;;;;7.32;6.63;;;;;;;;;;5086089;28;20208;-69
2022/12/20 05:13:27;;;;;;;7.20;6.50;;;;;;;;;;5077014;28;20200;-69
2022/12/20 05:15:55;;;;;;;7.43;6.72;;;;;;;;;;5075960;28;20630;-69
2022/12/20 05:18:22;;;;;;;7.57;6.78;;;;;;;;;;5077205;28;20214;-69
2022/12/20 05:26:16;;;;;;;7.25;6.55;;;;;;;;;;5076704;28;20299;-69
2022/12/20 05:26:25;;;;;;;6.85;6.25;;;;;;;;;;5076425;28;20265;-69
2022/12/20 05:28:52;;;;;;;7.05;6.35;;;;;;;;;;5076619;28;20307;-69
2022/12/20 05:31:20;;;;;;;7.35;6.65;;;;;;;;;;5076590;28;20204;-69
2022/12/20 05:33:47;;;;;;;7.18;6.47;;;;;;;;;;5076957;28;20200;-69
2022/12/20 05:36:17;;;;;;;7.57;6.45;;;;;;;;;;5076792;28;20206;-69
2022/12/20 05:38:44;;;;;;;7.10;6.43;;;;;;;;;;5076426;28;20287;-69
2022/12/20 05:41:11;;;;;;;7.30;6.60;;;;;;;;;;5076735;28;20304;-69
2022/12/20 05:43:39;;;;;;;7.13;6.43;;;;;;;;;;5076475;28;20228;-69
2022/12/20 05:46:07;;;;;;;6.78;6.18;;;;;;;;;;5075752;28;20204;-69
2022/12/20 05:48:34;;;;;;;7.05;6.40;;;;;;;;;;5076292;28;20212;-69
2022/12/20 05:51:02;;;;;;;7.15;6.45;;;;;;;;;;5074993;28;20204;-69
2022/12/20 05:53:31;;;;;;;6.88;6.18;;;;;;;;;;5075375;28;20572;-69
2022/12/20 05:55:58;;;;;;;6.78;6.07;;;;;;;;;;5076075;28;20496;-69
2022/12/20 05:58:25;;;;;;;7.18;6.47;;;;;;;;;;5075819;28;20226;-69
2022/12/20 06:00:53;;;;;;;6.97;6.38;;;;;;;;;;5079297;28;20282;-69
2022/12/20 06:03:20;;;;;;;6.95;6.25;;;;;;;;;;5094780;28;20239;-69
2022/12/20 06:05:48;;;;;;;6.63;6.03;;;;;;;;;;5078033;28;20196;-68
2022/12/20 06:08:15;;;;;;;6.68;6.07;;;;;;;;;;5073908;28;20204;-68
2022/12/20 06:10:45;;;;;;;6.80;6.13;;;;;;;;;;5075076;28;20211;-69
2022/12/20 06:13:12;;;;;;;7.00;6.30;;;;;;;;;;5074591;28;20254;-68
2022/12/20 06:15:40;;;;;;;7.03;6.35;;;;;;;;;;5075074;28;20307;-69
2022/12/20 06:18:08;;;;;;;6.95;6.35;;;;;;;;;;5074682;28;20835;-69
2022/12/20 06:20:36;;;;;;;6.55;5.95;;;;;;;;;;5074031;28;20754;-69
2022/12/20 06:23:03;;;;;;;6.65;6.05;;;;;;;;;;5073460;28;20204;-69
2022/12/20 06:25:31;;;;;;;7.05;6.35;;;;;;;;;;5073751;28;20236;-69
2022/12/20 06:28:00;;;;;;;6.65;6.05;;;;;;;;;;5080246;28;20613;-69
2022/12/20 06:30:28;;;;;;;6.70;6.10;;;;;;;;;;5094949;28;20573;-69
2022/12/20 06:32:55;;;;;;;7.13;6.50;;;;;;;;;;5094739;28;20302;-69
2022/12/20 06:35:23;;;;;;;6.60;6.00;;;;;;;;;;5094777;28;20210;-68
2022/12/20 06:37:50;;;;;;;6.70;6.10;;;;;;;;;;5092945;28;20601;-69
2022/12/20 06:40:17;;;;;;;12.23;10.48;;;;;;;;;;5091803;28;20282;-69
2022/12/20 06:42:45;;;;;;;48.25;37.83;;;;;;;;;;5093377;28;20200;-69
2022/12/20 06:45:14;;;;;;;36.80;30.58;;;;;;;;;;5093504;28;20306;-69
2022/12/20 06:47:41;;;;;;;36.38;28.80;;;;;;;;;;5092729;28;20285;-69
2022/12/20 06:50:09;;;;;;;35.90;30.20;;;;;;;;;;5093129;28;20663;-70
2022/12/20 06:52:38;;;;;;;39.53;30.00;;;;;;;;;;5093907;28;20200;-68
2022/12/20 06:55:09;;;;;;;36.30;28.92;;;;;;;;;;5095043;28;20595;-69
2022/12/20 06:57:36;;;;;;;36.70;28.95;;;;;;;;;;5092819;28;20235;-69
2022/12/20 07:00:04;;;;;;;33.17;28.23;;;;;;;;;;5093006;28;21467;-69
2022/12/20 07:02:33;;;;;;;35.47;29.00;;;;;;;;;;5090881;28;20264;-69
2022/12/20 07:05:00;;;;;;;34.97;28.42;;;;;;;;;;5093498;28;20226;-68
2022/12/20 07:07:28;;;;;;;36.58;29.10;;;;;;;;;;5093178;28;20299;-69
2022/12/20 07:09:55;;;;;;;35.63;29.42;;;;;;;;;;5093106;28;20207;-69
2022/12/20 07:12:23;;;;;;;35.30;29.50;;;;;;;;;;5093888;28;20214;-69
2022/12/20 07:14:50;;;;;;;35.35;28.98;;;;;;;;;;5093816;28;20394;-69
2022/12/20 07:17:18;;;;;;;36.33;30.27;;;;;;;;;;5094617;28;20199;-69
2022/12/20 07:19:47;;;;;;;33.78;28.42;;;;;;;;;;5094202;28;20310;-69
2022/12/20 07:22:14;;;;;;;34.17;28.90;;;;;;;;;;5094325;28;20204;-69
2022/12/20 07:24:42;;;;;;;33.15;27.98;;;;;;;;;;5093855;28;20865;-69
2022/12/20 07:27:11;;;;;;;35.60;28.52;;;;;;;;;;5093873;28;20246;-69
2022/12/20 07:29:40;;;;;;;34.63;28.38;;;;;;;;;;5093975;28;20195;-69
2022/12/20 07:32:08;;;;;;;33.63;27.92;;;;;;;;;;5094013;28;20262;-69
2022/12/20 07:34:37;;;;;;;35.65;27.67;;;;;;;;;;5093718;28;20294;-69
2022/12/20 07:37:07;;;;;;;30.92;27.02;;;;;;;;;;5093329;28;20229;-69
2022/12/20 07:39:35;;;;;;;33.03;26.88;;;;;;;;;;5096653;28;20286;-69
2022/12/20 07:42:02;;;;;;;32.95;27.02;;;;;;;;;;5097015;28;20647;-69
2022/12/20 07:44:30;;;;;;;30.88;27.05;;;;;;;;;;5097307;28;20310;-69
2022/12/20 07:46:57;;;;;;;111.25;89.90;;;;;;;;;;5097558;28;20599;-69
2022/12/20 07:49:25;;;;;;;85.50;70.80;;;;;;;;;;5097238;28;20230;-69
2022/12/20 07:51:53;;;;;;;74.22;61.67;;;;;;;;;;5097455;28;20203;-69
2022/12/20 07:54:24;;;;;;;67.13;56.70;;;;;;;;;;5096415;28;20240;-69
2022/12/20 07:56:52;;;;;;;64.45;53.78;;;;;;;;;;5097524;28;20208;-69
2022/12/20 07:59:22;;;;;;;65.65;52.78;;;;;;;;;;5096051;28;20210;-69
2022/12/20 08:01:49;;;;;;;59.28;50.60;;;;;;;;;;5097520;28;20257;-69
2022/12/20 08:04:19;;;;;;;83.57;66.10;;;;;;;;;;5096685;28;20235;-69
2022/12/20 08:06:47;;;;;;;113.38;95.28;;;;;;;;;;5096023;28;20203;-69
2022/12/20 08:09:15;;;;;;;94.63;79.10;;;;;;;;;;5096864;28;20204;-69
2022/12/20 08:11:45;;;;;;;87.85;72.38;;;;;;;;;;5096476;28;20303;-69
2022/12/20 08:14:13;;;;;;;87.93;68.32;;;;;;;;;;5096533;28;20203;-69
2022/12/20 08:16:40;;;;;;;77.68;66.35;;;;;;;;;;5096121;28;20294;-69
2022/12/20 08:19:08;;;;;;;75.78;63.58;;;;;;;;;;5096072;28;20201;-69
2022/12/20 08:21:35;;;;;;;74.28;61.67;;;;;;;;;;5096521;28;20542;-69
2022/12/20 08:24:03;;;;;;;67.85;58.35;;;;;;;;;;5096453;28;20456;-69
2022/12/20 08:26:30;;;;;;;70.05;57.40;;;;;;;;;;5096444;28;20206;-69
2022/12/20 08:28:59;;;;;;;63.15;55.50;;;;;;;;;;5097089;28;20290;-69
2022/12/20 08:31:26;;;;;;;63.83;54.78;;;;;;;;;;5096399;28;20295;-69
2022/12/20 08:33:55;;;;;;;61.65;52.00;;;;;;;;;;5096336;28;20199;-69
2022/12/20 08:36:22;;;;;;;58.15;50.65;;;;;;;;;;5096907;28;20294;-69
2022/12/20 08:38:50;;;;;;;56.22;48.47;;;;;;;;;;5096970;28;20203;-69
2022/12/20 08:41:17;;;;;;;56.03;48.13;;;;;;;;;;5096866;28;20242;-69
2022/12/20 08:43:45;;;;;;;56.60;47.58;;;;;;;;;;5096159;28;20470;-69
2022/12/20 08:46:15;;;;;;;51.15;44.63;;;;;;;;;;5096572;28;20306;-69
2022/12/20 08:48:45;;;;;;;47.97;41.97;;;;;;;;;;5096056;28;20192;-69
2022/12/20 08:51:15;;;;;;;44.70;39.78;;;;;;;;;;5095912;28;20196;-69
2022/12/20 08:53:43;;;;;;;45.97;40.75;;;;;;;;;;5095855;28;20276;-69
2022/12/20 08:56:11;;;;;;;42.45;37.85;;;;;;;;;;5095676;28;20298;-69
2022/12/20 08:58:39;;;;;;;43.70;37.05;;;;;;;;;;5095810;28;20718;-69
2022/12/20 09:01:07;;;;;;;39.72;34.60;;;;;;;;;;5095661;28;20298;-69
2022/12/20 09:03:36;;;;;;;39.58;34.90;;;;;;;;;;5095632;28;20342;-68
2022/12/20 09:06:06;;;;;;;40.25;34.58;;;;;;;;;;5092299;28;20521;-68
2022/12/20 09:08:33;;;;;;;39.95;33.25;;;;;;;;;;5084174;28;20616;-69
2022/12/20 09:11:04;;;;;;;37.13;31.85;;;;;;;;;;5083601;28;20284;-69
2022/12/20 09:13:31;;;;;;;36.42;30.08;;;;;;;;;;5083064;28;20229;-69
2022/12/20 09:16:00;;;;;;;35.17;28.98;;;;;;;;;;5074506;28;20299;-69
2022/12/20 09:18:28;;;;;;;34.40;28.95;;;;;;;;;;5075728;28;20226;-69
2022/12/20 09:20:59;;;;;;;32.78;27.23;;;;;;;;;;5075615;28;20500;-69
2022/12/20 09:23:27;;;;;;;28.42;25.40;;;;;;;;;;5075301;28;20248;-69
2022/12/20 09:25:55;;;;;;;28.02;24.70;;;;;;;;;;5074235;28;20220;-69
2022/12/20 09:28:23;;;;;;;27.23;24.33;;;;;;;;;;5074428;28;20204;-69
2022/12/20 09:30:50;;;;;;;26.77;23.38;;;;;;;;;;5075293;28;20205;-69
2022/12/20 09:33:17;;;;;;;25.75;22.88;;;;;;;;;;5074568;28;20295;-69
2022/12/20 09:35:45;;;;;;;25.88;22.00;;;;;;;;;;5074354;28;20236;-68
2022/12/20 09:38:14;;;;;;;23.77;21.38;;;;;;;;;;5074664;28;20303;-68
2022/12/20 09:40:45;;;;;;;22.80;20.38;;;;;;;;;;5074593;28;20204;-69
2022/12/20 09:43:13;;;;;;;22.88;19.85;;;;;;;;;;5073290;28;20240;-69
2022/12/20 09:45:41;;;;;;;22.83;19.52;;;;;;;;;;5073855;28;20616;-69
2022/12/20 09:48:12;;;;;;;22.92;20.45;;;;;;;;;;5073423;28;20204;-69
2022/12/20 09:50:54;;;;;;;20.83;18.13;;;;;;;;;;5073980;28;20708;-69
2022/12/20 09:53:27;;;;;;;22.80;19.05;;;;;;;;;;5073648;28;20671;-68
2022/12/20 09:55:57;;;;;;;19.92;17.70;;;;;;;;;;5073751;28;20243;-68
2022/12/20 09:58:34;;;;;;;22.20;16.77;;;;;;;;;;5072772;28;20691;-69
2022/12/20 10:01:12;;;;;;;19.10;16.65;;;;;;;;;;5072401;28;20218;-69
2022/12/20 10:03:39;;;;;;;20.75;16.83;;;;;;;;;;5073773;28;20242;-69
2022/12/20 10:06:10;;;;;;;20.60;16.25;;;;;;;;;;5073594;28;20227;-69
2022/12/20 10:08:46;;;;;;;19.55;15.60;;;;;;;;;;5082368;28;20199;-69
2022/12/20 10:11:22;;;;;;;18.25;15.68;;;;;;;;;;5093491;28;20260;-69
2022/12/20 10:13:56;;;;;;;21.33;16.15;;;;;;;;;;5094040;28;20203;-69
2022/12/20 10:16:35;;;;;;;22.00;15.68;;;;;;;;;;5093194;28;20298;-69
2022/12/20 10:19:07;;;;;;;23.00;16.33;;;;;;;;;;5093880;28;20196;-69
2022/12/20 10:21:38;;;;;;;18.88;14.45;;;;;;;;;;5093944;28;20210;-69
2022/12/20 10:24:11;;;;;;;23.60;14.85;;;;;;;;;;5093917;28;20303;-69
2022/12/20 10:26:38;;;;;;;20.48;14.73;;;;;;;;;;5093833;28;20617;-69
2022/12/20 10:29:05;;;;;;;19.20;13.35;;;;;;;;;;5094256;28;20287;-69
2022/12/20 10:31:33;;;;;;;22.08;13.95;;;;;;;;;;5094538;28;20219;-69
2022/12/20 10:34:01;;;;;;;23.95;14.07;;;;;;;;;;5094389;28;20204;-69
2022/12/20 10:36:29;;;;;;;24.15;14.50;;;;;;;;;;5093747;28;20734;-69
2022/12/20 10:38:57;;;;;;;18.33;13.05;;;;;;;;;;5093300;28;20320;-69
2022/12/20 10:41:27;;;;;;;21.75;13.27;;;;;;;;;;5093899;28;20609;-69
2022/12/20 10:43:57;;;;;;;19.65;12.85;;;;;;;;;;5094298;28;20302;-69
2022/12/20 10:46:35;;;;;;;18.90;12.90;;;;;;;;;;5093085;28;20232;-69
2022/12/20 10:49:22;;;;;;;19.85;13.18;;;;;;;;;;5093238;28;20674;-69
2022/12/20 10:51:53;;;;;;;17.50;12.85;;;;;;;;;;5093522;28;20203;-69
2022/12/20 10:54:23;;;;;;;16.67;12.10;;;;;;;;;;5094058;28;20299;-69
2022/12/20 10:56:57;;;;;;;17.83;12.38;;;;;;;;;;5092545;28;20203;-69
2022/12/20 10:59:30;;;;;;;16.25;11.88;;;;;;;;;;5093824;28;20204;-69
2022/12/20 11:01:57;;;;;;;18.00;11.40;;;;;;;;;;5093311;28;20203;-69
2022/12/20 11:04:27;;;;;;;19.95;11.80;;;;;;;;;;5092526;28;20513;-69
2022/12/20 11:06:55;;;;;;;16.55;11.48;;;;;;;;;;5093349;28;20196;-69
2022/12/20 11:09:28;;;;;;;18.17;11.57;;;;;;;;;;5092774;28;20294;-69
2022/12/20 11:12:04;;;;;;;14.48;10.70;;;;;;;;;;5093290;28;20298;-69
2022/12/20 11:14:32;;;;;;;15.32;10.68;;;;;;;;;;5096161;28;20530;-69
2022/12/20 11:17:00;;;;;;;15.70;10.85;;;;;;;;;;5096974;28;20199;-69
2022/12/20 11:19:31;;;;;;;15.65;10.38;;;;;;;;;;5096006;28;20303;-69
2022/12/20 11:22:02;;;;;;;14.95;10.65;;;;;;;;;;5095638;28;20191;-69
2022/12/20 11:24:33;;;;;;;16.70;10.48;;;;;;;;;;5096865;28;20678;-69
2022/12/20 11:27:09;;;;;;;14.65;9.95;;;;;;;;;;5096329;28;20337;-69
2022/12/20 11:29:45;;;;;;;14.93;10.10;;;;;;;;;;5096742;28;20801;-69
2022/12/20 11:32:22;;;;;;;12.93;9.75;;;;;;;;;;5096863;28;20289;-69
2022/12/20 11:34:53;;;;;;;13.50;9.90;;;;;;;;;;5096293;28;20681;-69
2022/12/20 11:37:22;;;;;;;13.25;8.88;;;;;;;;;;5096605;28;20237;-69
2022/12/20 11:40:04;;;;;;;10.80;9.10;;;;;;;;;;5095959;28;20212;-69
2022/12/20 11:42:37;;;;;;;11.35;8.98;;;;;;;;;;5094106;28;20204;-69
2022/12/20 11:45:08;;;;;;;12.15;8.98;;;;;;;;;;5096483;28;20318;-69
2022/12/20 11:47:59;;;;;;;11.30;9.40;;;;;;;;;;5095330;28;20614;-69
2022/12/20 11:50:37;;;;;;;10.23;8.63;;;;;;;;;;5096029;28;20204;-69
2022/12/20 11:53:08;;;;;;;10.80;9.05;;;;;;;;;;5096300;28;20314;-69
2022/12/20 11:55:36;;;;;;;12.07;8.65;;;;;;;;;;5095383;28;20303;-69
2022/12/20 11:58:11;;;;;;;10.55;8.30;;;;;;;;;;5095602;28;20230;-69
2022/12/20 12:00:39;;;;;;;9.77;8.02;;;;;;;;;;5095703;28;20301;-69
2022/12/20 12:03:11;;;;;;;10.18;8.75;;;;;;;;;;5094980;28;20700;-69
2022/12/20 12:05:43;;;;;;;10.02;8.18;;;;;;;;;;5095378;28;20227;-69
2022/12/20 12:08:13;;;;;;;10.88;8.30;;;;;;;;;;5095404;28;20199;-69
2022/12/20 12:10:42;;;;;;;12.10;8.43;;;;;;;;;;5095055;28;20225;-69
2022/12/20 12:13:17;;;;;;;9.50;8.13;;;;;;;;;;5095059;28;20592;-69
2022/12/20 12:15:48;;;;;;;8.85;7.53;;;;;;;;;;5096512;28;20207;-69
2022/12/20 12:18:18;;;;;;;8.45;7.55;;;;;;;;;;5094973;28;20204;-69
2022/12/20 12:20:49;;;;;;;9.40;8.02;;;;;;;;;;5094986;28;20747;-69
2022/12/20 12:23:20;;;;;;;7.90;7.07;;;;;;;;;;5095797;28;20621;-69
2022/12/20 12:25:48;;;;;;;8.82;7.35;;;;;;;;;;5095217;28;20260;-69
2022/12/20 12:28:18;;;;;;;8.60;7.50;;;;;;;;;;5095567;28;20203;-69
2022/12/20 12:30:48;;;;;;;10.77;7.38;;;;;;;;;;5095993;28;20210;-69
2022/12/20 12:33:17;;;;;;;9.00;7.30;;;;;;;;;;5095997;28;20208;-69
2022/12/20 12:36:06;;;;;;;8.75;6.97;;;;;;;;;;5095665;28;20192;-69
2022/12/20 12:38:47;;;;;;;8.65;7.53;;;;;;;;;;5070203;28;20199;-69
2022/12/20 12:41:31;;;;;;;7.60;6.80;;;;;;;;;;5095409;28;20199;-69
2022/12/20 12:44:04;;;;;;;9.15;7.10;;;;;;;;;;5095746;28;20290;-69
2022/12/20 12:46:33;;;;;;;7.63;6.82;;;;;;;;;;5095314;28;20234;-69
2022/12/20 12:49:03;;;;;;;7.53;6.57;;;;;;;;;;5095447;28;20620;-69
2022/12/20 12:51:32;;;;;;;7.00;6.30;;;;;;;;;;5094462;28;20210;-69
2022/12/20 12:54:03;;;;;;;8.25;6.90;;;;;;;;;;5095372;28;20235;-69
2022/12/20 12:56:34;;;;;;;7.90;6.80;;;;;;;;;;5095249;28;20617;-69
2022/12/20 12:59:20;;;;;;;8.45;7.13;;;;;;;;;;5095250;28;20211;-69
2022/12/20 13:01:49;;;;;;;7.90;6.63;;;;;;;;;;5094479;28;20203;-69
2022/12/20 13:04:27;;;;;;;7.57;6.78;;;;;;;;;;5095366;28;20233;-69
2022/12/20 13:07:02;;;;;;;7.55;6.72;;;;;;;;;;5094591;28;20219;-69
2022/12/20 13:09:40;;;;;;;6.88;6.20;;;;;;;;;;5095100;28;20297;-69
2022/12/20 13:12:26;;;;;;;7.15;6.45;;;;;;;;;;5093999;28;20516;-69
2022/12/20 13:14:55;;;;;;;6.93;6.18;;;;;;;;;;5094590;28;20702;-69
2022/12/20 13:17:55;;;;;;;6.93;6.20;;;;;;;;;;5094424;28;20325;-69
2022/12/20 13:20:24;;;;;;;6.97;6.28;;;;;;;;;;5032187;28;20530;-69
2022/12/20 13:23:16;;;;;;;7.50;6.70;;;;;;;;;;5030724;28;20875;-69
2022/12/20 13:25:44;;;;;;;6.65;6.05;;;;;;;;;;5070878;28;20227;-69
2022/12/20 13:28:26;;;;;;;7.07;6.32;;;;;;;;;;5094718;28;20294;-69
2022/12/20 13:31:09;;;;;;;6.80;6.10;;;;;;;;;;5081131;28;20204;-69
2022/12/20 13:33:42;;;;;;;7.03;6.32;;;;;;;;;;5093385;28;20636;-69
2022/12/20 13:36:30;;;;;;;7.15;6.45;;;;;;;;;;5092207;28;20210;-69
2022/12/20 13:38:59;;;;;;;6.47;5.90;;;;;;;;;;5089424;28;20294;-69
2022/12/20 13:41:33;;;;;;;7.35;6.25;;;;;;;;;;5092856;28;20203;-69
2022/12/20 13:44:02;;;;;;;6.53;5.75;;;;;;;;;;5093101;28;20202;-69
2022/12/20 13:46:33;;;;;;;6.60;5.90;;;;;;;;;;5093331;28;20227;-69
2022/12/20 13:49:04;;;;;;;6.57;5.90;;;;;;;;;;5093796;28;20240;-69
2022/12/20 13:51:32;;;;;;;7.35;6.65;;;;;;;;;;5093555;28;20231;-69
2022/12/20 13:54:00;;;;;;;6.57;5.97;;;;;;;;;;5093657;28;20210;-69
2022/12/20 13:56:36;;;;;;;6.40;5.78;;;;;;;;;;5093749;28;20200;-69
2022/12/20 13:59:10;;;;;;;6.45;5.80;;;;;;;;;;5093879;28;20209;-69
2022/12/20 14:01:37;;;;;;;7.03;6.32;;;;;;;;;;5094127;28;20246;-69
2022/12/20 14:04:07;;;;;;;6.88;5.53;;;;;;;;;;5109558;28;20341;-69
2022/12/20 14:06:35;;;;;;;6.50;5.55;;;;;;;;;;5114129;28;20484;-68
2022/12/20 14:09:04;;;;;;;7.15;6.43;;;;;;;;;;5114056;28;20195;-69
2022/12/20 14:11:31;;;;;;;6.68;5.97;;;;;;;;;;5079687;28;20211;-69
2022/12/20 14:14:00;;;;;;;6.70;6.10;;;;;;;;;;5072460;28;20205;-68
2022/12/20 14:16:29;;;;;;;6.35;5.75;;;;;;;;;;5072937;28;20204;-69
2022/12/20 14:19:03;;;;;;;7.13;6.20;;;;;;;;;;5072978;28;20204;-69
2022/12/20 14:21:32;;;;;;;6.20;5.60;;;;;;;;;;5072689;28;20254;-69
2022/12/20 14:24:00;;;;;;;13.57;12.20;;;;;;;;;;5073538;28;20314;-69
2022/12/20 14:26:29;;;;;;;11.27;10.18;;;;;;;;;;5073352;28;20322;-69
2022/12/20 14:28:58;;;;;;;11.00;8.80;;;;;;;;;;5073460;28;20205;-69
2022/12/20 14:31:26;;;;;;;9.30;8.50;;;;;;;;;;5071742;28;20482;-69
2022/12/20 14:34:02;;;;;;;11.10;8.77;;;;;;;;;;5073475;28;20204;-69
2022/12/20 14:36:30;;;;;;;9.57;8.48;;;;;;;;;;5072725;28;20804;-69
2022/12/20 14:38:59;;;;;;;8.55;7.75;;;;;;;;;;5073221;28;20215;-69
2022/12/20 14:41:31;;;;;;;9.18;8.27;;;;;;;;;;5073458;28;20257;-68
2022/12/20 14:44:00;;;;;;;8.48;7.68;;;;;;;;;;5072904;28;20200;-69
2022/12/20 14:46:27;;;;;;;9.90;8.38;;;;;;;;;;5072738;28;20314;-69
2022/12/20 14:49:06;;;;;;;9.15;7.90;;;;;;;;;;5076763;28;20290;-69
2022/12/20 14:51:34;;;;;;;8.50;7.70;;;;;;;;;;5077466;28;20291;-69
2022/12/20 14:54:03;;;;;;;11.45;7.82;;;;;;;;;;5077505;28;20312;-69